Time,TemperatureF,DewpointF,PressureIn,WindDirection,WindDirectionDegrees,WindSpeedMPH,WindSpeedGustMPH,Humidity,HourlyPrecipIn,Conditions,Clouds,dailyrainin,SoftwareType,DateUTC
2013-07-28 00:05:00,65.9,65.0,29.83,South,171,0.0,-999.0,96,-99.99,,,0.00,weatherlink.com 1.10,2013-07-28 04:05:00,
2013-07-28 00:20:00,65.8,65.0,29.83,SE,144,0.0,-999.0,96,-99.99,,,0.00,weatherlink.com 1.10,2013-07-28 04:20:00,
2013-07-28 00:35:00,65.7,65.0,29.83,SE,144,0.0,-999.0,96,-99.99,,,0.00,weatherlink.com 1.10,2013-07-28 04:35:00,
2013-07-28 00:50:00,65.7,65.0,29.82,SE,144,0.0,-999.0,96,-99.99,,,0.00,weatherlink.com 1.10,2013-07-28 04:50:00,
2013-07-28 01:05:00,65.7,65.0,29.82,SE,144,0.0,-999.0,97,-99.99,,,0.00,weatherlink.com 1.10,2013-07-28 05:05:00,
2013-07-28 01:20:00,65.5,64.0,29.82,SE,144,0.0,-999.0,96,-99.99,,,0.00,weatherlink.com 1.10,2013-07-28 05:20:00,
2013-07-28 01:35:00,64.9,64.0,29.81,SE,144,0.0,-999.0,96,-99.99,,,0.00,weatherlink.com 1.10,2013-07-28 05:35:00,
2013-07-28 01:50:00,64.9,64.0,29.81,SE,144,0.0,-999.0,96,-99.99,,,0.00,weatherlink.com 1.10,2013-07-28 05:50:00,
2013-07-28 02:05:00,64.9,64.0,29.81,SE,144,0.0,-999.0,96,-99.99,,,0.00,weatherlink.com 1.10,2013-07-28 06:05:00,
2013-07-28 02:20:00,65.0,64.0,29.81,SE,144,0.0,-999.0,96,-99.99,,,0.00,weatherlink.com 1.10,2013-07-28 06:20:00,
2013-07-28 02:35:00,64.9,64.0,29.80,SE,144,0.0,-999.0,96,-99.99,,,0.00,weatherlink.com 1.10,2013-07-28 06:35:00,
2013-07-28 02:50:00,64.0,63.0,29.80,SE,144,0.0,-999.0,96,-99.99,,,0.00,weatherlink.com 1.10,2013-07-28 06:50:00,
2013-07-28 03:05:00,63.8,63.0,29.81,SE,144,0.0,-999.0,96,-99.99,,,0.00,weatherlink.com 1.10,2013-07-28 07:05:00,
2013-07-28 03:20:00,63.5,62.0,29.80,SE,144,0.0,-999.0,96,-99.99,,,0.00,weatherlink.com 1.10,2013-07-28 07:20:00,
2013-07-28 03:35:00,63.8,63.0,29.81,SE,145,0.0,-999.0,97,-99.99,,,0.00,weatherlink.com 1.10,2013-07-28 07:35:00,
2013-07-28 03:50:00,63.6,63.0,29.80,SSE,150,0.0,-999.0,96,-99.99,,,0.00,weatherlink.com 1.10,2013-07-28 07:50:00,
2013-07-28 04:05:00,63.2,62.0,29.81,SSW,207,0.0,-999.0,96,-99.99,,,0.00,weatherlink.com 1.10,2013-07-28 08:05:00,
2013-07-28 04:20:00,62.9,62.0,29.80,West,261,0.0,-999.0,96,-99.99,,,0.00,weatherlink.com 1.10,2013-07-28 08:20:00,
2013-07-28 04:35:00,62.7,62.0,29.80,West,261,0.0,-999.0,96,-99.99,,,0.00,weatherlink.com 1.10,2013-07-28 08:35:00,
2013-07-28 04:50:00,62.5,61.0,29.80,NNW,339,4.0,-999.0,96,-99.99,,,0.00,weatherlink.com 1.10,2013-07-28 08:50:00,
2013-07-28 05:05:00,62.3,61.0,29.81,NNW,347,4.0,-999.0,96,-99.99,,,0.00,weatherlink.com 1.10,2013-07-28 09:05:00,
2013-07-28 05:20:00,62.2,61.0,29.81,NNW,342,6.0,-999.0,96,-99.99,,,0.00,weatherlink.com 1.10,2013-07-28 09:20:00,
2013-07-28 05:35:00,62.2,61.0,29.81,NNW,340,5.0,-999.0,96,-99.99,,,0.00,weatherlink.com 1.10,2013-07-28 09:35:00,
2013-07-28 05:50:00,62.5,61.0,29.82,North,355,4.0,-999.0,96,-99.99,,,0.00,weatherlink.com 1.10,2013-07-28 09:50:00,
2013-07-28 06:05:00,62.4,61.0,29.82,NW,313,0.0,-999.0,95,-99.99,,,0.00,weatherlink.com 1.10,2013-07-28 10:05:00,
2013-07-28 06:20:00,62.4,61.0,29.83,NW,319,0.0,-999.0,95,-99.99,,,0.00,weatherlink.com 1.10,2013-07-28 10:20:00,
2013-07-28 06:35:00,62.5,61.0,29.84,NW,319,0.0,-999.0,95,-99.99,,,0.00,weatherlink.com 1.10,2013-07-28 10:35:00,
2013-07-28 06:50:00,62.2,61.0,29.84,NW,319,0.0,-999.0,95,-99.99,,,0.00,weatherlink.com 1.10,2013-07-28 10:50:00,
2013-07-28 07:05:00,62.2,61.0,29.84,NW,319,0.0,-999.0,96,-99.99,,,0.00,weatherlink.com 1.10,2013-07-28 11:05:00,
2013-07-28 07:20:00,62.2,61.0,29.84,NW,319,0.0,-999.0,96,-99.99,,,0.00,weatherlink.com 1.10,2013-07-28 11:20:00,
2013-07-28 07:35:00,62.2,61.0,29.84,NW,319,0.0,-999.0,96,-99.99,,,0.00,weatherlink.com 1.10,2013-07-28 11:35:00,
2013-07-28 07:50:00,62.5,61.0,29.85,NW,319,0.0,-999.0,96,-99.99,,,0.00,weatherlink.com 1.10,2013-07-28 11:50:00,
2013-07-28 08:05:00,62.7,62.0,29.85,NW,319,0.0,-999.0,96,-99.99,,,0.00,weatherlink.com 1.10,2013-07-28 12:05:00,
2013-07-28 08:20:00,63.1,62.0,29.86,NW,319,0.0,-999.0,96,-99.99,,,0.00,weatherlink.com 1.10,2013-07-28 12:20:00,
2013-07-28 08:35:00,63.6,63.0,29.86,NW,319,0.0,-999.0,96,-99.99,,,0.00,weatherlink.com 1.10,2013-07-28 12:35:00,
2013-07-28 08:50:00,63.7,62.0,29.87,NW,319,0.0,-999.0,95,-99.99,,,0.00,weatherlink.com 1.10,2013-07-28 12:50:00,
2013-07-28 09:05:00,64.4,62.0,29.87,NW,319,0.0,-999.0,93,-99.99,,,0.00,weatherlink.com 1.10,2013-07-28 13:05:00,
2013-07-28 09:20:00,65.1,63.0,29.88,NW,319,0.0,-999.0,93,-99.99,,,0.00,weatherlink.com 1.10,2013-07-28 13:20:00,
2013-07-28 09:35:00,65.6,63.0,29.88,NW,319,0.0,-999.0,92,-99.99,,,0.00,weatherlink.com 1.10,2013-07-28 13:35:00,
2013-07-28 09:50:00,66.2,64.0,29.88,NW,324,0.0,-999.0,91,-99.99,,,0.00,weatherlink.com 1.10,2013-07-28 13:50:00,
2013-07-28 10:05:00,67.4,64.0,29.88,NW,324,0.0,-999.0,89,-99.99,,,0.00,weatherlink.com 1.10,2013-07-28 14:05:00,
2013-07-28 10:20:00,68.0,64.0,29.87,NW,324,0.0,-999.0,88,-99.99,,,0.00,weatherlink.com 1.10,2013-07-28 14:20:00,
2013-07-28 10:35:00,68.0,63.0,29.87,NNW,327,0.0,-999.0,83,-99.99,,,0.00,weatherlink.com 1.10,2013-07-28 14:35:00,
2013-07-28 10:50:00,68.4,64.0,29.87,NNW,327,0.0,-999.0,87,-99.99,,,0.00,weatherlink.com 1.10,2013-07-28 14:50:00,
2013-07-28 11:05:00,69.5,67.0,29.88,NW,326,0.0,-999.0,90,-99.99,,,0.00,weatherlink.com 1.10,2013-07-28 15:05:00,
2013-07-28 11:20:00,70.3,67.0,29.89,SSE,148,0.0,-999.0,90,-99.99,,,0.00,weatherlink.com 1.10,2013-07-28 15:20:00,
2013-07-28 11:35:00,70.9,67.0,29.89,SSE,166,0.0,-999.0,87,-99.99,,,0.00,weatherlink.com 1.10,2013-07-28 15:35:00,
2013-07-28 11:50:00,71.5,67.0,29.89,South,188,0.0,-999.0,85,-99.99,,,0.00,weatherlink.com 1.10,2013-07-28 15:50:00,
2013-07-28 12:05:00,72.8,67.0,29.89,SW,220,0.0,-999.0,81,-99.99,,,0.00,weatherlink.com 1.10,2013-07-28 16:05:00,
2013-07-28 12:20:00,74.2,68.0,29.89,SSW,199,2.0,-999.0,81,-99.99,,,0.00,weatherlink.com 1.10,2013-07-28 16:20:00,
2013-07-28 12:35:00,75.1,69.0,29.88,SE,144,0.0,-999.0,81,-99.99,,,0.00,weatherlink.com 1.10,2013-07-28 16:35:00,
2013-07-28 12:50:00,75.2,68.0,29.89,SSE,165,0.0,-999.0,79,-99.99,,,0.00,weatherlink.com 1.10,2013-07-28 16:50:00,
2013-07-28 13:05:00,74.4,69.0,29.88,North,11,0.0,-999.0,83,-99.99,,,0.00,weatherlink.com 1.10,2013-07-28 17:05:00,
2013-07-28 13:20:00,76.2,68.0,29.88,SSE,147,0.0,-999.0,76,-99.99,,,0.00,weatherlink.com 1.10,2013-07-28 17:20:00,
2013-07-28 13:35:00,75.6,69.0,29.88,South,175,0.0,-999.0,80,-99.99,,,0.00,weatherlink.com 1.10,2013-07-28 17:35:00,
2013-07-28 13:50:00,76.1,69.0,29.87,South,178,0.0,-999.0,78,-99.99,,,0.00,weatherlink.com 1.10,2013-07-28 17:50:00,
2013-07-28 14:05:00,77.1,69.0,29.87,SSW,207,3.0,-999.0,76,-99.99,,,0.00,weatherlink.com 1.10,2013-07-28 18:05:00,
2013-07-28 14:20:00,77.6,71.0,29.86,WSW,238,0.0,-999.0,81,-99.99,,,0.00,weatherlink.com 1.10,2013-07-28 18:20:00,
2013-07-28 14:35:00,79.3,69.0,29.86,SSW,198,0.0,-999.0,71,-99.99,,,0.00,weatherlink.com 1.10,2013-07-28 18:35:00,
2013-07-28 14:50:00,80.8,71.0,29.86,WSW,238,2.0,-999.0,73,-99.99,,,0.00,weatherlink.com 1.10,2013-07-28 18:50:00,
2013-07-28 15:05:00,79.8,71.0,29.85,SSW,200,2.0,-999.0,74,-99.99,,,0.00,weatherlink.com 1.10,2013-07-28 19:05:00,
2013-07-28 15:20:00,80.0,70.0,29.84,SSW,200,6.0,-999.0,72,-99.99,,,0.00,weatherlink.com 1.10,2013-07-28 19:20:00,
2013-07-28 15:35:00,81.2,72.0,29.84,SSW,202,3.0,-999.0,73,-99.99,,,0.00,weatherlink.com 1.10,2013-07-28 19:35:00,
2013-07-28 15:50:00,80.8,72.0,29.84,SW,216,0.0,-999.0,74,-99.99,,,0.00,weatherlink.com 1.10,2013-07-28 19:50:00,
2013-07-28 16:05:00,79.6,71.0,29.84,SE,144,5.0,-999.0,76,-99.99,,,0.00,weatherlink.com 1.10,2013-07-28 20:05:00,
2013-07-28 16:20:00,76.6,70.0,29.83,SSE,155,2.0,-999.0,80,-99.99,,,0.00,weatherlink.com 1.10,2013-07-28 20:20:00,
2013-07-28 16:35:00,73.8,69.0,29.84,SSW,200,0.0,-999.0,84,-99.99,,,0.00,weatherlink.com 1.10,2013-07-28 20:35:00,
2013-07-28 16:50:00,75.1,70.0,29.84,SSE,159,0.0,-999.0,83,-99.99,,,0.00,weatherlink.com 1.10,2013-07-28 20:50:00,
2013-07-28 17:05:00,76.7,69.0,29.84,SW,232,0.0,-999.0,78,-99.99,,,0.00,weatherlink.com 1.10,2013-07-28 21:05:00,
2013-07-28 17:20:00,76.1,70.0,29.84,SSW,193,0.0,-999.0,80,-99.99,,,0.00,weatherlink.com 1.10,2013-07-28 21:20:00,
2013-07-28 17:35:00,74.9,69.0,29.85,SSW,213,2.0,-999.0,82,-99.99,,,0.00,weatherlink.com 1.10,2013-07-28 21:35:00,
2013-07-28 17:50:00,74.8,70.0,29.85,South,180,0.0,-999.0,84,-99.99,,,0.00,weatherlink.com 1.10,2013-07-28 21:50:00,
2013-07-28 18:05:00,74.3,70.0,29.85,South,171,0.0,-999.0,86,-99.99,,,0.00,weatherlink.com 1.10,2013-07-28 22:05:00,
2013-07-28 18:20:00,73.5,70.0,29.85,SSE,152,4.0,-999.0,87,-99.99,,,0.00,weatherlink.com 1.10,2013-07-28 22:20:00,
2013-07-28 18:35:00,73.0,67.0,29.85,SSE,159,0.0,-999.0,82,-99.99,,,0.00,weatherlink.com 1.10,2013-07-28 22:35:00,
2013-07-28 18:50:00,72.5,68.0,29.85,SSW,197,0.0,-999.0,85,-99.99,,,0.00,weatherlink.com 1.10,2013-07-28 22:50:00,
2013-07-28 19:05:00,71.5,68.0,29.85,SSW,197,0.0,-999.0,87,-99.99,,,0.00,weatherlink.com 1.10,2013-07-28 23:05:00,
2013-07-28 19:20:00,71.2,68.0,29.86,SSW,197,0.0,-999.0,88,-99.99,,,0.00,weatherlink.com 1.10,2013-07-28 23:20:00,
2013-07-28 19:35:00,70.8,67.0,29.86,South,191,0.0,-999.0,88,-99.99,,,0.00,weatherlink.com 1.10,2013-07-28 23:35:00,
2013-07-28 19:50:00,70.2,67.0,29.87,South,191,0.0,-999.0,89,-99.99,,,0.00,weatherlink.com 1.10,2013-07-28 23:50:00,
2013-07-28 20:05:00,69.4,66.0,29.88,South,191,0.0,-999.0,89,-99.99,,,0.00,weatherlink.com 1.10,2013-07-29 00:05:00,
2013-07-28 20:20:00,68.7,65.0,29.89,South,191,0.0,-999.0,89,-99.99,,,0.00,weatherlink.com 1.10,2013-07-29 00:20:00,
2013-07-28 20:35:00,68.3,66.0,29.89,South,191,0.0,-999.0,91,-99.99,,,0.00,weatherlink.com 1.10,2013-07-29 00:35:00,
2013-07-28 20:50:00,67.7,64.0,29.89,NNW,330,0.0,-999.0,87,-99.99,,,0.00,weatherlink.com 1.10,2013-07-29 00:50:00,
2013-07-28 21:05:00,67.4,62.0,29.89,North,350,1.0,-999.0,84,-99.99,,,0.00,weatherlink.com 1.10,2013-07-29 01:05:00,
2013-07-28 21:20:00,67.2,62.0,29.90,NNW,344,1.0,-999.0,83,-99.99,,,0.00,weatherlink.com 1.10,2013-07-29 01:20:00,
2013-07-28 21:35:00,66.7,62.0,29.90,NNW,345,0.0,-999.0,86,-99.99,,,0.00,weatherlink.com 1.10,2013-07-29 01:35:00,
2013-07-28 22:05:00,65.7,60.0,29.92,NNW,346,4.0,-999.0,81,-99.99,,,0.00,weatherlink.com 1.10,2013-07-29 02:05:00,
2013-07-28 22:20:00,65.9,61.0,29.92,NNW,346,4.0,-999.0,84,-99.99,,,0.00,weatherlink.com 1.10,2013-07-29 02:20:00,
2013-07-28 22:35:00,65.8,61.0,29.92,NNW,347,0.0,-999.0,83,-99.99,,,0.00,weatherlink.com 1.10,2013-07-29 02:35:00,
2013-07-28 22:50:00,65.4,59.0,29.92,NNW,348,4.0,-999.0,81,-99.99,,,0.00,weatherlink.com 1.10,2013-07-29 02:50:00,
2013-07-28 23:20:00,65.1,59.0,29.92,NNW,342,2.0,-999.0,81,-99.99,,,0.00,weatherlink.com 1.10,2013-07-29 03:20:00,
2013-07-28 23:50:00,64.9,59.0,29.93,North,351,4.0,-999.0,80,-99.99,,,0.00,weatherlink.com 1.10,2013-07-29 03:50:00,